Time;durP1;ratioP1;P1;durP2;ratioP2;P2;SDS_P1;SDS_P2;PMS_P1;PMS_P2;Temp;Humidity;BMP_temperature;BMP_pressure;BME280_temperature;BME280_humidity;BME280_pressure;Samples;Min_cycle;Max_cycle;Signal;HPM_P1;HPM_P2
2023/07/26 00:00:56;;;;;;;12.30;7.55;;;;;;;11.17;100.00;95598.44;2091146;28;20052;-59
2023/07/26 00:01:57;;;;;;;16.17;7.68;;;;;;;11.19;100.00;95598.31;2091452;28;20511;-59
2023/07/26 00:02:58;;;;;;;10.80;8.32;;;;;;;11.14;100.00;95601.19;2091175;28;20053;-59
2023/07/26 00:03:59;;;;;;;10.80;7.93;;;;;;;11.14;100.00;95598.56;2091464;28;20053;-59
2023/07/26 00:05:00;;;;;;;10.07;8.05;;;;;;;11.07;100.00;95599.88;2091233;28;20063;-59
2023/07/26 00:06:02;;;;;;;11.75;8.40;;;;;;;11.11;100.00;95603.94;2091343;28;20041;-59
2023/07/26 00:07:03;;;;;;;10.80;7.68;;;;;;;11.12;100.00;95599.59;2091169;28;20409;-59
2023/07/26 00:08:04;;;;;;;15.65;8.60;;;;;;;11.13;100.00;95602.09;2090534;28;20053;-59
2023/07/26 00:09:07;;;;;;;11.75;8.30;;;;;;;11.12;100.00;95592.66;2090711;28;20103;-59
2023/07/26 00:10:09;;;;;;;11.38;8.50;;;;;;;11.11;100.00;95605.72;2090872;28;20048;-59
2023/07/26 00:11:10;;;;;;;13.68;8.35;;;;;;;11.13;100.00;95604.72;2090748;28;20072;-59
2023/07/26 00:12:12;;;;;;;11.13;7.30;;;;;;;11.12;100.00;95605.66;2090535;28;20528;-59
2023/07/26 00:13:16;;;;;;;11.30;8.60;;;;;;;11.07;100.00;95597.25;2091428;28;20060;-60
2023/07/26 00:14:17;;;;;;;13.00;8.55;;;;;;;11.12;100.00;95608.25;2091366;28;20052;-59
2023/07/26 00:15:19;;;;;;;15.27;8.95;;;;;;;11.02;100.00;95600.09;2091610;28;20053;-59
2023/07/26 00:16:20;;;;;;;11.55;8.60;;;;;;;11.12;100.00;95613.44;2091149;28;20045;-59
2023/07/26 00:17:21;;;;;;;15.35;9.10;;;;;;;11.09;100.00;95605.78;2091027;28;20041;-59
2023/07/26 00:18:22;;;;;;;13.02;8.77;;;;;;;11.13;100.00;95607.31;2091721;28;20393;-59
2023/07/26 00:19:23;;;;;;;13.38;9.07;;;;;;;11.13;100.00;95611.69;2091577;28;20063;-60
2023/07/26 00:20:24;;;;;;;13.82;8.18;;;;;;;11.14;100.00;95608.97;2091078;28;20053;-58
2023/07/26 00:21:26;;;;;;;11.93;7.93;;;;;;;11.05;100.00;95604.28;2091533;28;20060;-59
2023/07/26 00:22:27;;;;;;;12.57;9.00;;;;;;;11.13;100.00;95612.50;2091214;28;20063;-59
2023/07/26 00:23:28;;;;;;;13.30;9.38;;;;;;;11.10;100.00;95614.44;2091134;28;20056;-59
2023/07/26 00:24:29;;;;;;;12.27;9.00;;;;;;;11.09;100.00;95612.75;2091258;28;20503;-59
2023/07/26 00:25:30;;;;;;;11.93;8.90;;;;;;;11.02;100.00;95600.09;2091234;28;20048;-59
2023/07/26 00:26:32;;;;;;;15.15;9.25;;;;;;;11.05;100.00;95622.50;2091019;28;20045;-59
2023/07/26 00:27:34;;;;;;;16.42;9.18;;;;;;;11.06;100.00;95618.94;2090791;28;20374;-59
2023/07/26 00:28:35;;;;;;;14.30;9.30;;;;;;;11.06;100.00;95618.94;2090853;28;20049;-59
2023/07/26 00:29:36;;;;;;;17.65;9.57;;;;;;;11.02;100.00;95620.91;2090776;28;20044;-59
2023/07/26 00:30:37;;;;;;;15.63;9.45;;;;;;;11.06;100.00;95621.56;2090168;28;20457;-59
2023/07/26 00:31:38;;;;;;;12.85;8.65;;;;;;;11.04;100.00;95623.41;2091038;28;20053;-59
2023/07/26 00:32:39;;;;;;;15.25;9.07;;;;;;;11.04;100.00;95620.81;2090845;28;20056;-59
2023/07/26 00:33:41;;;;;;;14.43;9.02;;;;;;;11.01;100.00;95620.97;2091188;28;20041;-59
2023/07/26 00:34:42;;;;;;;12.35;8.75;;;;;;;10.99;100.00;95618.47;2090811;28;20055;-59
2023/07/26 00:35:44;;;;;;;14.30;9.10;;;;;;;10.98;100.00;95621.13;2089944;28;20057;-59
2023/07/26 00:36:46;;;;;;;13.50;8.85;;;;;;;11.01;100.00;95627.03;2090527;28;20045;-57
2023/07/26 00:37:48;;;;;;;11.98;8.73;;;;;;;11.01;100.00;95628.75;2090536;28;20033;-57
2023/07/26 00:38:49;;;;;;;14.77;9.45;;;;;;;11.02;100.00;95625.25;2091377;28;20056;-57
2023/07/26 00:39:51;;;;;;;14.73;9.55;;;;;;;10.97;100.00;95627.25;2090774;28;20049;-57
2023/07/26 00:40:52;;;;;;;14.77;9.70;;;;;;;11.00;100.00;95634.88;2090860;28;20036;-57
2023/07/26 00:41:53;;;;;;;15.20;9.50;;;;;;;10.99;100.00;95630.63;2091335;28;20425;-57
2023/07/26 00:42:55;;;;;;;14.60;9.95;;;;;;;10.99;100.00;95628.88;2090897;28;20049;-57
2023/07/26 00:43:56;;;;;;;13.93;10.10;;;;;;;10.99;100.00;95634.06;2091101;28;20044;-58
2023/07/26 00:44:57;;;;;;;15.25;9.85;;;;;;;11.01;100.00;95632.22;2091022;28;20048;-57
2023/07/26 00:45:58;;;;;;;13.73;9.65;;;;;;;11.00;100.00;95627.09;2090632;28;20078;-57
2023/07/26 00:46:59;;;;;;;14.88;10.15;;;;;;;11.02;100.00;95630.44;2090099;28;20056;-57
2023/07/26 00:48:00;;;;;;;15.15;10.25;;;;;;;10.99;100.00;95631.47;2082071;28;20053;-57
2023/07/26 00:49:01;;;;;;;16.75;10.75;;;;;;;10.99;100.00;95636.66;2090433;28;20485;-57
2023/07/26 00:50:03;;;;;;;16.80;10.45;;;;;;;10.96;100.00;95628.16;2091018;28;20056;-58
2023/07/26 00:51:04;;;;;;;15.55;11.40;;;;;;;10.98;100.00;95632.34;2090180;28;20524;-58
2023/07/26 00:52:06;;;;;;;16.20;11.30;;;;;;;10.96;100.00;95634.22;2090493;28;20056;-57
2023/07/26 00:53:07;;;;;;;15.73;9.93;;;;;;;10.95;100.00;95631.69;2098223;28;20060;-58
2023/07/26 00:54:09;;;;;;;18.25;11.90;;;;;;;10.96;100.00;95633.38;2090586;28;20048;-58
2023/07/26 00:55:10;;;;;;;17.33;11.98;;;;;;;10.96;100.00;95633.38;2082223;28;20080;-57
2023/07/26 00:56:12;;;;;;;15.07;11.20;;;;;;;10.95;100.00;95639.50;2081851;28;20421;-57
2023/07/26 00:57:13;;;;;;;17.67;11.13;;;;;;;10.94;100.00;95636.06;2090319;28;20056;-57
2023/07/26 00:58:14;;;;;;;16.58;11.25;;;;;;;10.92;100.00;95639.66;2082054;28;20060;-57
2023/07/26 00:59:17;;;;;;;21.63;11.15;;;;;;;10.81;100.00;95627.25;2074024;28;20092;-57
2023/07/26 01:00:18;;;;;;;17.70;11.82;;;;;;;10.90;100.00;95644.09;2090308;28;20488;-57
2023/07/26 01:01:20;;;;;;;18.52;11.88;;;;;;;10.89;100.00;95643.25;2090410;28;20064;-58
2023/07/26 01:02:21;;;;;;;20.30;11.27;;;;;;;10.91;100.00;95640.59;2090853;28;20056;-57
2023/07/26 01:03:22;;;;;;;16.00;11.63;;;;;;;10.91;100.00;95640.59;2090861;28;20404;-57
2023/07/26 01:04:23;;;;;;;20.13;12.40;;;;;;;10.91;100.00;95638.00;2090779;28;20056;-57
2023/07/26 01:05:27;;;;;;;15.27;10.82;;;;;;;10.92;100.00;95643.09;2090665;28;20060;-57
2023/07/26 01:06:35;;;;;;;17.35;11.85;;;;;;;10.84;100.00;95632.28;2082941;28;20057;-57
2023/07/26 01:08:00;;;;;;;15.93;10.40;;;;;;;10.88;100.00;95641.59;2083195;28;20056;-57
2023/07/26 01:09:09;;;;;;;15.43;11.60;;;;;;;10.89;100.00;95638.06;2085328;28;20506;-57
2023/07/26 01:10:25;;;;;;;;;;;;;;;10.91;100.00;95632.81;2093569;28;20052;-57
2023/07/26 01:11:38;;;;;;;15.90;10.70;;;;;;;10.87;100.00;95637.31;2089846;28;19923;-57
2023/07/26 01:12:51;;;;;;;16.17;11.32;;;;;;;10.89;100.00;95642.44;2076052;28;20054;-57
2023/07/26 01:14:00;;;;;;;16.45;10.73;;;;;;;10.79;100.00;95626.50;2083344;28;20052;-58
2023/07/26 01:15:03;;;;;;;17.02;11.85;;;;;;;10.88;100.00;95641.59;2082705;28;20536;-57
2023/07/26 01:16:04;;;;;;;18.65;11.40;;;;;;;10.87;100.00;95639.06;2074165;28;20053;-57
2023/07/26 01:17:05;;;;;;;16.15;11.27;;;;;;;10.87;100.00;95644.25;2081890;28;20049;-57
2023/07/26 01:18:10;;;;;;;17.13;11.85;;;;;;;10.79;100.00;95624.72;2081806;28;20052;-57
2023/07/26 01:19:11;;;;;;;18.33;11.65;;;;;;;10.90;100.00;95641.50;2090103;28;20049;-57
2023/07/26 01:20:12;;;;;;;18.10;11.75;;;;;;;10.90;100.00;95646.69;2090220;28;20531;-57
2023/07/26 01:21:13;;;;;;;17.38;11.68;;;;;;;10.90;100.00;95646.69;2090807;28;20041;-58
2023/07/26 01:22:14;;;;;;;16.33;11.02;;;;;;;10.81;100.00;95635.06;2090733;28;20048;-57
2023/07/26 01:23:15;;;;;;;16.15;10.98;;;;;;;10.90;100.00;95651.88;2090463;28;20057;-57
2023/07/26 01:24:16;;;;;;;18.08;11.60;;;;;;;10.89;100.00;95650.22;2090821;28;20358;-57
2023/07/26 01:25:17;;;;;;;17.33;11.63;;;;;;;10.89;100.00;95645.03;2091114;28;20401;-57
2023/07/26 01:26:19;;;;;;;15.40;10.57;;;;;;;10.85;100.00;95643.50;2090653;28;20041;-57
2023/07/26 01:27:20;;;;;;;16.13;10.60;;;;;;;10.87;100.00;95642.50;2090810;28;20048;-57
2023/07/26 01:28:21;;;;;;;13.88;10.27;;;;;;;10.88;100.00;95641.59;2090670;28;20107;-62
2023/07/26 01:29:22;;;;;;;17.15;10.73;;;;;;;10.89;100.00;95643.25;2090514;28;20060;-57
2023/07/26 01:30:23;;;;;;;17.67;11.27;;;;;;;10.84;100.00;95637.47;2090298;28;20061;-58
2023/07/26 01:31:25;;;;;;;14.45;10.00;;;;;;;10.87;100.00;95645.09;2089436;28;20053;-57
2023/07/26 01:32:27;;;;;;;16.77;10.77;;;;;;;10.89;100.00;95652.81;2089319;28;20048;-57
2023/07/26 01:33:28;;;;;;;17.10;10.70;;;;;;;10.92;100.00;95661.28;2081174;28;20441;-57
2023/07/26 01:34:29;;;;;;;15.15;10.88;;;;;;;10.91;100.00;95656.19;2074282;28;20433;-57
2023/07/26 01:35:30;;;;;;;16.25;10.35;;;;;;;10.89;100.00;95648.47;2090208;28;20053;-57
2023/07/26 01:36:31;;;;;;;19.02;11.65;;;;;;;10.92;100.00;95650.88;2089920;28;20357;-58
2023/07/26 01:37:32;;;;;;;20.10;11.95;;;;;;;10.93;100.00;95656.91;2089418;28;20049;-57
2023/07/26 01:38:34;;;;;;;21.00;12.20;;;;;;;10.92;100.00;95650.06;2073437;28;20045;-57
2023/07/26 01:39:35;;;;;;;15.52;11.20;;;;;;;10.95;100.00;95655.09;2073545;28;20050;-57
2023/07/26 01:40:37;;;;;;;20.05;12.95;;;;;;;10.97;100.00;95655.84;2081852;28;20060;-58
2023/07/26 01:41:38;;;;;;;16.08;11.75;;;;;;;10.96;100.00;95651.56;2081539;28;20049;-58
2023/07/26 01:42:39;;;;;;;14.98;11.80;;;;;;;10.96;100.00;95659.34;2082152;28;20048;-57
2023/07/26 01:43:41;;;;;;;17.95;12.48;;;;;;;10.95;100.00;95657.69;2081379;28;20405;-57
2023/07/26 01:44:42;;;;;;;18.77;12.65;;;;;;;10.96;100.00;95659.34;2089884;28;20432;-57
2023/07/26 01:45:43;;;;;;;16.88;12.20;;;;;;;10.93;100.00;95660.38;2090657;28;20060;-57
2023/07/26 01:46:44;;;;;;;20.48;13.43;;;;;;;10.92;100.00;95652.66;2090649;28;20037;-57
2023/07/26 01:47:45;;;;;;;18.60;12.90;;;;;;;10.96;100.00;95659.34;2090542;28;20045;-57
2023/07/26 01:48:46;;;;;;;22.05;13.00;;;;;;;10.94;100.00;95651.66;2090655;28;20052;-57
2023/07/26 01:49:48;;;;;;;20.90;13.65;;;;;;;10.97;100.00;95650.66;2090610;28;20044;-57
2023/07/26 01:50:49;;;;;;;23.42;13.50;;;;;;;10.97;100.00;95658.44;2090522;28;20045;-57
2023/07/26 01:51:50;;;;;;;21.92;14.65;;;;;;;10.98;100.00;95652.31;2090384;28;20049;-57
2023/07/26 01:52:51;;;;;;;17.83;11.95;;;;;;;11.00;100.00;95655.69;2090645;28;20406;-57
2023/07/26 01:53:52;;;;;;;21.05;12.85;;;;;;;10.98;100.00;95647.94;2090597;28;20052;-57
2023/07/26 01:54:53;;;;;;;17.85;12.52;;;;;;;10.98;100.00;95655.75;2090029;28;20061;-57
2023/07/26 01:55:54;;;;;;;17.58;11.63;;;;;;;10.96;100.00;95652.41;2089651;28;20040;-57
2023/07/26 01:56:55;;;;;;;19.70;11.88;;;;;;;11.02;100.00;95651.25;2082247;28;20053;-57
2023/07/26 01:57:57;;;;;;;16.48;12.20;;;;;;;10.99;100.00;95652.25;2081666;28;20060;-57
2023/07/26 01:58:58;;;;;;;21.08;13.18;;;;;;;11.01;100.00;95658.19;2080732;28;20072;-57
2023/07/26 01:59:59;;;;;;;15.45;11.85;;;;;;;11.02;100.00;95657.28;2081337;28;20057;-58
2023/07/26 02:01:03;;;;;;;20.33;13.07;;;;;;;11.04;100.00;95667.59;2080894;28;20061;-58
2023/07/26 02:02:04;;;;;;;19.83;13.20;;;;;;;11.00;100.00;95664.31;2081810;28;20064;-57
2023/07/26 02:03:06;;;;;;;19.02;13.40;;;;;;;11.01;100.00;95659.94;2081580;28;20056;-57
2023/07/26 02:04:07;;;;;;;18.98;13.13;;;;;;;11.02;100.00;95664.22;2081290;28;20053;-57
2023/07/26 02:05:09;;;;;;;18.23;13.88;;;;;;;11.00;100.00;95666.91;2089384;28;20057;-57
2023/07/26 02:06:10;;;;;;;18.30;12.85;;;;;;;10.97;100.00;95667.06;2081590;28;20465;-57
2023/07/26 02:07:11;;;;;;;19.70;13.05;;;;;;;10.91;100.00;95649.22;2081271;28;20060;-58
2023/07/26 02:08:12;;;;;;;22.40;14.18;;;;;;;10.96;100.00;95668.00;2081566;28;20049;-57
2023/07/26 02:09:13;;;;;;;21.67;14.05;;;;;;;10.97;100.00;95671.44;2089828;28;20056;-57
2023/07/26 02:10:14;;;;;;;19.23;14.35;;;;;;;11.00;100.00;95676.47;2097305;28;20060;-57
2023/07/26 02:11:15;;;;;;;21.00;14.45;;;;;;;11.02;100.00;95680.66;2089743;28;20048;-57
2023/07/26 02:12:17;;;;;;;20.25;14.73;;;;;;;11.01;100.00;95679.00;2081219;28;20395;-57
2023/07/26 02:13:19;;;;;;;21.75;14.60;;;;;;;10.94;100.00;95669.84;2089446;28;20400;-58
2023/07/26 02:14:20;;;;;;;22.88;14.57;;;;;;;11.02;100.00;95682.41;2090392;28;20055;-57
2023/07/26 02:15:21;;;;;;;22.60;14.75;;;;;;;10.98;100.00;95676.53;2090183;28;20060;-58
2023/07/26 02:16:22;;;;;;;20.30;14.98;;;;;;;11.02;100.00;95680.66;2090144;28;20493;-57
2023/07/26 02:17:23;;;;;;;24.63;15.07;;;;;;;11.05;100.00;95682.25;2089310;28;20059;-57
2023/07/26 02:18:25;;;;;;;23.80;14.98;;;;;;;11.01;100.00;95670.34;2089664;28;20049;-58
2023/07/26 02:19:26;;;;;;;24.33;15.45;;;;;;;11.00;100.00;95685.09;2090004;28;20060;-57
2023/07/26 02:20:30;;;;;;;23.52;15.52;;;;;;;10.93;100.00;95668.19;2090305;28;20057;-57
2023/07/26 02:21:31;;;;;;;27.23;16.17;;;;;;;11.01;100.00;95683.31;2089972;28;20357;-57
2023/07/26 02:22:33;;;;;;;21.55;15.38;;;;;;;11.01;100.00;95683.31;2088981;28;20053;-58
2023/07/26 02:23:34;;;;;;;26.15;17.27;;;;;;;10.98;100.00;95671.34;2089784;28;20048;-57
2023/07/26 02:24:35;;;;;;;26.52;16.95;;;;;;;11.05;100.00;95684.84;2090396;28;20053;-57
2023/07/26 02:25:36;;;;;;;25.70;16.25;;;;;;;11.08;100.00;95679.47;2090173;28;20041;-57
2023/07/26 02:26:37;;;;;;;25.33;16.35;;;;;;;11.13;100.00;95692.22;2089748;28;20041;-57
2023/07/26 02:27:39;;;;;;;22.20;16.63;;;;;;;11.11;100.00;95689.69;2073487;28;20054;-58
2023/07/26 02:28:40;;;;;;;27.42;17.15;;;;;;;11.08;100.00;95689.03;2072769;28;20061;-57
2023/07/26 02:29:41;;;;;;;25.52;16.25;;;;;;;11.09;100.00;95693.31;2089063;28;20485;-57
2023/07/26 02:30:43;;;;;;;24.73;17.30;;;;;;;11.08;100.00;95689.03;2080921;28;20076;-57
2023/07/26 02:31:44;;;;;;;25.92;16.98;;;;;;;11.09;100.00;95694.13;2089295;28;20057;-57
2023/07/26 02:32:45;;;;;;;22.70;16.75;;;;;;;11.07;100.00;95690.81;2089193;28;20050;-57
2023/07/26 02:33:46;;;;;;;23.70;16.75;;;;;;;11.04;100.00;95691.81;2081410;28;20049;-58
2023/07/26 02:34:47;;;;;;;28.65;18.30;;;;;;;10.98;100.00;95680.91;2089168;28;20048;-57
2023/07/26 02:35:48;;;;;;;26.67;17.98;;;;;;;11.07;100.00;95693.41;2090802;28;20413;-57
2023/07/26 02:36:49;;;;;;;29.25;18.80;;;;;;;11.08;100.00;95689.88;2090368;28;20044;-57
2023/07/26 02:37:50;;;;;;;26.27;17.80;;;;;;;11.07;100.00;95697.78;2090066;28;20064;-57
2023/07/26 02:38:52;;;;;;;26.58;17.90;;;;;;;10.98;100.00;95681.72;2081237;28;20045;-58
2023/07/26 02:39:53;;;;;;;27.35;17.63;;;;;;;11.02;100.00;95698.84;2081157;28;20053;-57
2023/07/26 02:40:55;;;;;;;27.83;19.40;;;;;;;10.95;100.00;95688.84;2090105;28;20044;-57
2023/07/26 02:41:56;;;;;;;26.98;19.17;;;;;;;11.04;100.00;95703.97;2090250;28;20396;-57
2023/07/26 02:42:57;;;;;;;27.00;19.40;;;;;;;11.01;100.00;95702.38;2090082;28;20064;-57
2023/07/26 02:43:58;;;;;;;30.38;17.23;;;;;;;11.00;100.00;95708.47;2088963;28;20060;-57
2023/07/26 02:44:59;;;;;;;27.17;18.55;;;;;;;10.96;100.00;95693.97;2088980;28;20067;-58
2023/07/26 02:46:00;;;;;;;27.85;19.08;;;;;;;11.03;100.00;95712.66;2090144;28;20048;-57
2023/07/26 02:47:02;;;;;;;24.88;18.20;;;;;;;11.04;100.00;95712.59;2089679;28;20057;-57
2023/07/26 02:48:03;;;;;;;28.90;18.98;;;;;;;11.07;100.00;95724.59;2089667;28;20409;-57
2023/07/26 02:49:04;;;;;;;29.98;20.30;;;;;;;11.05;100.00;95716.03;2089724;28;20053;-57
2023/07/26 02:50:06;;;;;;;28.90;19.63;;;;;;;11.08;100.00;95728.03;2089323;28;20057;-57
2023/07/26 02:51:08;;;;;;;30.40;19.88;;;;;;;11.04;100.00;95725.59;2089135;28;20049;-58
2023/07/26 02:52:09;;;;;;;28.73;20.30;;;;;;;11.08;100.00;95725.44;2089735;28;20053;-57
2023/07/26 02:53:11;;;;;;;29.55;20.50;;;;;;;11.01;100.00;95706.72;2081486;28;20098;-57
2023/07/26 02:54:12;;;;;;;31.60;21.67;;;;;;;11.08;100.00;95712.44;2081379;28;20053;-57
2023/07/26 02:55:13;;;;;;;30.98;20.50;;;;;;;11.10;100.00;95726.19;2089232;28;20519;-57
2023/07/26 02:56:14;;;;;;;34.30;20.48;;;;;;;11.09;100.00;95714.09;2090100;28;20527;-57
2023/07/26 02:57:15;;;;;;;32.78;20.45;;;;;;;11.12;100.00;95721.72;2089984;28;20053;-57
2023/07/26 02:58:16;;;;;;;31.13;21.67;;;;;;;11.13;100.00;95720.81;2089326;28;20052;-57
2023/07/26 02:59:18;;;;;;;33.10;21.75;;;;;;;11.12;100.00;95727.78;2089147;28;20052;-57
2023/07/26 03:00:19;;;;;;;34.58;21.95;;;;;;;11.12;100.00;95727.78;2081175;28;20516;-57
2023/07/26 03:01:20;;;;;;;33.65;21.80;;;;;;;11.12;100.00;95725.19;2089173;28;20061;-57
2023/07/26 03:02:22;;;;;;;30.77;21.02;;;;;;;11.12;100.00;95730.38;2088611;28;20488;-57
2023/07/26 03:03:23;;;;;;;32.00;21.35;;;;;;;11.11;100.00;95730.44;2089357;28;20049;-57
2023/07/26 03:04:24;;;;;;;33.60;21.83;;;;;;;11.09;100.00;95730.53;2090310;28;20064;-57
2023/07/26 03:05:25;;;;;;;31.10;21.35;;;;;;;11.12;100.00;95734.72;2090029;28;20503;-57
2023/07/26 03:06:26;;;;;;;31.50;21.15;;;;;;;11.11;100.00;95735.66;2089928;28;20052;-57
2023/07/26 03:07:27;;;;;;;40.17;22.40;;;;;;;11.13;100.00;95736.41;2089968;28;20053;-57
2023/07/26 03:08:28;;;;;;;32.15;21.85;;;;;;;11.09;100.00;95735.72;2090009;28;20056;-57
2023/07/26 03:09:30;;;;;;;33.17;22.13;;;;;;;11.07;100.00;95727.19;2090068;28;20045;-57
2023/07/26 03:10:33;;;;;;;34.85;22.77;;;;;;;11.09;100.00;95737.47;2089675;28;20048;-57
2023/07/26 03:11:35;;;;;;;31.83;21.42;;;;;;;11.01;100.00;95723.16;2088821;28;20057;-57
2023/07/26 03:12:36;;;;;;;34.30;22.35;;;;;;;11.10;100.00;95742.63;2089351;28;20507;-57
2023/07/26 03:13:37;;;;;;;35.30;22.08;;;;;;;11.10;100.00;95742.63;2089418;28;20064;-57
2023/07/26 03:14:40;;;;;;;35.03;22.35;;;;;;;11.11;100.00;95741.69;2089880;28;20044;-57
2023/07/26 03:15:41;;;;;;;36.55;23.65;;;;;;;11.14;100.00;95733.72;2089248;28;20039;-57
2023/07/26 03:16:42;;;;;;;36.72;24.02;;;;;;;11.16;100.00;95744.88;2081133;28;20401;-57
2023/07/26 03:17:43;;;;;;;36.97;23.55;;;;;;;11.16;100.00;95747.47;2089003;28;20053;-57
2023/07/26 03:18:44;;;;;;;33.53;23.25;;;;;;;11.15;100.00;95743.22;2089005;28;20051;-57
2023/07/26 03:19:45;;;;;;;34.67;23.88;;;;;;;11.05;100.00;95736.81;2089190;28;20045;-57
2023/07/26 03:20:46;;;;;;;35.00;23.10;;;;;;;11.14;100.00;95748.47;2089817;28;20056;-57
2023/07/26 03:21:48;;;;;;;36.55;23.10;;;;;;;11.11;100.00;95743.44;2089228;28;20057;-57
2023/07/26 03:22:49;;;;;;;32.33;21.58;;;;;;;11.11;100.00;95746.88;2089520;28;20519;-57
2023/07/26 03:23:50;;;;;;;33.65;22.38;;;;;;;11.11;100.00;95746.88;2090008;28;20060;-57
2023/07/26 03:24:51;;;;;;;37.55;22.98;;;;;;;11.10;100.00;95745.22;2090065;28;20056;-57
2023/07/26 03:25:52;;;;;;;35.90;24.45;;;;;;;11.12;100.00;95740.78;2090300;28;20057;-58
2023/07/26 03:26:53;;;;;;;36.90;23.85;;;;;;;11.12;100.00;95738.19;2089822;28;20053;-57
2023/07/26 03:27:56;;;;;;;39.30;24.15;;;;;;;11.14;100.00;95741.50;2080683;28;20053;-57
2023/07/26 03:28:57;;;;;;;41.22;24.17;;;;;;;11.14;100.00;95748.47;2080739;28;20052;-57
2023/07/26 03:29:58;;;;;;;40.22;26.08;;;;;;;11.12;100.00;95748.56;2089678;28;20343;-57
2023/07/26 03:31:02;;;;;;;40.45;24.90;;;;;;;11.12;100.00;95751.19;2080947;28;20049;-57
2023/07/26 03:32:03;;;;;;;38.47;24.75;;;;;;;11.11;100.00;95741.69;2089145;28;20053;-57
2023/07/26 03:33:04;;;;;;;37.33;25.00;;;;;;;11.08;100.00;95747.03;2090278;28;20060;-57
2023/07/26 03:34:05;;;;;;;37.28;25.45;;;;;;;11.10;100.00;95749.56;2089945;28;20056;-57
2023/07/26 03:35:07;;;;;;;40.10;25.48;;;;;;;11.06;100.00;95742.84;2090260;28;20461;-57
2023/07/26 03:36:08;;;;;;;43.67;26.00;;;;;;;11.11;100.00;95751.25;2090160;28;20489;-57
2023/07/26 03:37:10;;;;;;;37.28;25.98;;;;;;;11.06;100.00;95751.47;2088867;28;20048;-57
2023/07/26 03:38:11;;;;;;;36.17;24.95;;;;;;;11.04;100.00;95754.19;2081017;28;20536;-57
2023/07/26 03:39:12;;;;;;;41.03;24.75;;;;;;;11.08;100.00;95746.22;2089037;28;20057;-57
2023/07/26 03:40:13;;;;;;;37.30;25.65;;;;;;;11.09;100.00;95747.88;2089797;28;20055;-57
2023/07/26 03:41:15;;;;;;;38.60;25.35;;;;;;;11.05;100.00;95757.59;2089245;28;20057;-57
2023/07/26 03:42:16;;;;;;;34.38;25.70;;;;;;;11.04;100.00;95756.78;2089170;28;20496;-57
2023/07/26 03:43:17;;;;;;;38.50;26.38;;;;;;;11.01;100.00;95750.88;2089139;28;20049;-57
2023/07/26 03:44:18;;;;;;;42.35;25.08;;;;;;;10.91;100.00;95728.94;2082033;28;20060;-57
2023/07/26 03:45:19;;;;;;;37.45;23.42;;;;;;;10.97;100.00;95749.38;2090424;28;20481;-57
2023/07/26 03:46:20;;;;;;;36.53;25.05;;;;;;;10.87;100.00;95741.22;2090695;28;20041;-57
2023/07/26 03:47:22;;;;;;;38.47;25.63;;;;;;;10.94;100.00;95752.97;2090940;28;20045;-57
2023/07/26 03:48:23;;;;;;;41.30;25.85;;;;;;;10.94;100.00;95752.97;2091624;28;20049;-58
2023/07/26 03:49:25;;;;;;;39.28;25.08;;;;;;;10.95;100.00;95748.59;2090376;28;20064;-57
2023/07/26 03:50:26;;;;;;;37.35;25.00;;;;;;;10.96;100.00;95747.69;2090157;28;20463;-57
2023/07/26 03:51:27;;;;;;;40.00;26.50;;;;;;;10.96;100.00;95752.88;2091490;28;20471;-57
2023/07/26 03:52:28;;;;;;;37.33;25.13;;;;;;;10.97;100.00;95751.97;2090981;28;20056;-57
2023/07/26 03:53:30;;;;;;;43.90;25.00;;;;;;;10.97;100.00;95754.56;2090582;28;20061;-57
2023/07/26 03:54:31;;;;;;;38.33;26.70;;;;;;;10.97;100.00;95759.78;2090387;28;20051;-57
2023/07/26 03:55:34;;;;;;;39.83;25.50;;;;;;;10.98;100.00;95761.44;2090386;28;20049;-57
2023/07/26 03:56:35;;;;;;;37.42;25.52;;;;;;;10.96;100.00;95753.75;2090587;28;20056;-58
2023/07/26 03:57:36;;;;;;;38.67;26.00;;;;;;;10.95;100.00;95759.84;2090711;28;20033;-57
2023/07/26 03:58:38;;;;;;;40.53;26.98;;;;;;;10.99;100.00;95768.34;2091389;28;20041;-57
2023/07/26 03:59:39;;;;;;;41.67;27.45;;;;;;;11.01;100.00;95766.47;2090807;28;20048;-57
2023/07/26 04:00:40;;;;;;;39.72;25.90;;;;;;;11.00;100.00;95770.00;2090925;28;20041;-57
2023/07/26 04:01:44;;;;;;;38.40;26.13;;;;;;;10.92;100.00;95760.00;2082653;28;20056;-57
2023/07/26 04:02:45;;;;;;;36.72;24.98;;;;;;;10.97;100.00;95777.97;2090670;28;20508;-57
2023/07/26 04:03:46;;;;;;;38.80;24.88;;;;;;;10.95;100.00;95772.81;2091296;28;20053;-57
2023/07/26 04:04:47;;;;;;;35.35;25.08;;;;;;;10.97;100.00;95783.16;2091310;28;20056;-58
2023/07/26 04:05:48;;;;;;;35.80;24.92;;;;;;;11.00;100.00;95783.00;2091181;28;20053;-57
2023/07/26 04:06:49;;;;;;;39.63;25.30;;;;;;;11.02;100.00;95783.75;2090363;28;20052;-57
2023/07/26 04:07:51;;;;;;;38.47;26.15;;;;;;;11.05;100.00;95783.59;2082355;28;20045;-57
2023/07/26 04:08:52;;;;;;;36.00;24.95;;;;;;;11.06;100.00;95785.25;2089942;28;20053;-57
2023/07/26 04:09:53;;;;;;;42.28;25.10;;;;;;;11.03;100.00;95785.44;2091389;28;20056;-57
2023/07/26 04:10:55;;;;;;;38.53;25.55;;;;;;;11.06;100.00;95787.03;2091276;28;20052;-57
2023/07/26 04:11:57;;;;;;;38.55;25.27;;;;;;;11.07;100.00;95786.13;2091144;28;20416;-57
2023/07/26 04:12:58;;;;;;;37.60;25.30;;;;;;;11.07;100.00;95788.72;2091199;28;20080;-57
2023/07/26 04:13:59;;;;;;;37.92;24.67;;;;;;;11.03;100.00;95785.44;2091149;28;20053;-57
2023/07/26 04:15:00;;;;;;;39.25;25.98;;;;;;;11.03;100.00;95790.63;2091287;28;20044;-57
2023/07/26 04:16:01;;;;;;;33.72;24.90;;;;;;;11.04;100.00;95798.34;2091279;28;20053;-57
2023/07/26 04:17:02;;;;;;;37.55;25.73;;;;;;;11.04;100.00;95797.50;2091306;28;20040;-57
2023/07/26 04:18:03;;;;;;;36.47;25.33;;;;;;;11.02;100.00;95792.38;2091078;28;20061;-57
2023/07/26 04:19:04;;;;;;;38.35;26.55;;;;;;;11.00;100.00;95790.78;2090935;28;20084;-57
2023/07/26 04:20:06;;;;;;;41.17;25.75;;;;;;;11.02;100.00;95799.34;2091059;28;20048;-57
2023/07/26 04:21:13;;;;;;;38.50;27.20;;;;;;;10.99;100.00;95797.75;2091391;28;20056;-57
2023/07/26 04:22:14;;;;;;;43.50;26.90;;;;;;;10.99;100.00;95797.75;2091314;28;20495;-58
2023/07/26 04:23:15;;;;;;;40.17;26.67;;;;;;;11.03;100.00;95806.22;2091043;28;20065;-57
2023/07/26 04:24:17;;;;;;;38.65;26.70;;;;;;;11.03;100.00;95795.81;2091252;28;20057;-57
2023/07/26 04:25:18;;;;;;;36.58;25.00;;;;;;;10.99;100.00;95802.94;2091053;28;20385;-57
2023/07/26 04:26:19;;;;;;;43.65;27.25;;;;;;;11.03;100.00;95803.59;2091277;28;20059;-58
2023/07/26 04:27:20;;;;;;;42.38;25.42;;;;;;;10.99;100.00;95805.53;2091062;28;20048;-58
2023/07/26 04:28:21;;;;;;;36.40;24.88;;;;;;;10.94;100.00;95798.91;2091460;28;20060;-58
2023/07/26 04:29:22;;;;;;;38.85;25.17;;;;;;;10.99;100.00;95804.72;2091037;28;20047;-58
2023/07/26 04:30:24;;;;;;;36.65;26.00;;;;;;;11.01;100.00;95810.63;2091117;28;20056;-58
2023/07/26 04:31:25;;;;;;;42.08;28.75;;;;;;;10.95;100.00;95787.59;2091199;28;20032;-58
2023/07/26 04:32:26;;;;;;;43.47;27.55;;;;;;;11.01;100.00;95808.91;2090973;28;20044;-58
2023/07/26 04:33:27;;;;;;;42.50;27.02;;;;;;;11.01;100.00;95808.91;2091173;28;20049;-58
2023/07/26 04:34:28;;;;;;;38.78;26.08;;;;;;;11.02;100.00;95810.56;2091053;28;20404;-58
2023/07/26 04:35:29;;;;;;;37.33;27.35;;;;;;;11.00;100.00;95807.22;2090765;28;20052;-58
2023/07/26 04:36:30;;;;;;;36.97;26.80;;;;;;;11.04;100.00;95813.94;2091082;28;20060;-58
2023/07/26 04:37:31;;;;;;;37.22;26.63;;;;;;;11.05;100.00;95809.56;2091583;28;20067;-58
2023/07/26 04:38:32;;;;;;;41.03;25.92;;;;;;;11.04;100.00;95813.94;2091173;28;20512;-58
2023/07/26 04:39:33;;;;;;;42.63;26.67;;;;;;;11.04;100.00;95810.50;2091227;28;20053;-58
2023/07/26 04:40:36;;;;;;;34.60;24.92;;;;;;;10.94;100.00;95794.53;2090803;28;20063;-58
2023/07/26 04:41:37;;;;;;;41.30;26.88;;;;;;;11.02;100.00;95804.53;2090913;28;20060;-58